Latest Weather Observations for Adele Island

IDW60801

Issued at 6:33 am WST Friday 19 August 2022 (issued every 10 minutes, with the page automatically refreshed every 10 minutes)

About weather observations | Map of weather stations | Latest weather observations for WA | Other Formats
Station Details ID: 200735 Name: ADELE ISLAND Lat: -15.51 Lon: 123.16 Height: 4.6 m
Data from the previous 72 hours. | See also: Recent months at Adele Island
Date/Time
WST
Temp
°C
App
Temp
°C
Dew
Point
°C
Rel
Hum
%
Delta-T
°C
Wind Press
QNH
hPa
Press
MSL
hPa
Rain since
9am
mm
Dir  Spd
km/h
Gust
km/h
Spd
kts
Gust
kts
19/06:30am 25.6 - - - - SE 26 32 14 17 1014.2 1014.1 -
19/06:17am 25.7 - - - - SE 28 33 15 18 1014.0 1013.9 -
19/06:00am 25.7 - - - - SE 28 33 15 18 1013.7 1013.6 -
19/05:30am 25.1 - - - - SSE 22 28 12 15 1013.3 1013.2 -
19/05:17am 25.0 - - - - SSE 20 - 11 - - 1013.2 -
19/05:00am 24.4 - - - - SSE 19 22 10 12 1013.1 1013.0 -
19/04:30am 25.1 - - - - SE 19 24 10 13 1013.2 1013.1 -
19/04:17am 25.5 - - - - SE 19 - 10 - - 1013.2 -
19/04:00am 25.2 - - - - SE 17 19 9 10 1013.2 1013.1 -
19/03:30am 24.3 - - - - SSE 15 19 8 10 1013.3 1013.2 -
19/03:17am 24.9 - - - - S 15 - 8 - - 1012.8 -
19/03:00am 24.5 - - - - S 13 17 7 9 1012.9 1012.8 -
19/02:30am 24.9 - - - - SSW 17 20 9 11 1012.7 1012.6 -
19/02:17am 25.0 - - - - SSW 19 - 10 - - 1012.6 -
19/02:00am 25.3 - - - - SSW 19 24 10 13 1012.9 1012.8 -
19/01:30am 25.6 - - - - SW 20 26 11 14 1013.1 1013.0 -
19/01:17am 25.8 - - - - SW 20 - 11 - - 1013.0 -
19/01:00am 25.9 - - - - SW 17 20 9 11 1013.2 1013.1 -
19/12:30am 26.1 - - - - WSW 17 20 9 11 1013.4 1013.3 -
19/12:17am 25.7 - - - - WSW 17 - 9 - - 1013.5 -
19/12:00am 25.5 - - - - SW 17 20 9 11 1013.7 1013.6 -
 
Date/Time
WST
Temp
°C
App
Temp
°C
Dew
Point
°C
Rel
Hum
%
Delta-T
°C
Wind Press
QNH
hPa
Press
MSL
hPa
Rain since
9am
mm
Dir  Spd
km/h
Gust
km/h
Spd
kts
Gust
kts
18/11:30pm 25.4 - - - - SW 19 20 10 11 1013.9 1013.8 -
18/11:17pm 25.4 - - - - SW 20 - 11 - - 1013.9 -
18/11:00pm 25.1 - - - - SW 20 22 11 12 1014.0 1013.9 -
18/10:30pm 25.1 - - - - SW 20 26 11 14 1013.9 1013.8 -
18/10:17pm 25.1 - - - - SW 20 - 11 - - 1013.7 -
18/10:00pm 25.1 - - - - SW 20 24 11 13 1013.8 1013.7 -
18/09:30pm 25.0 - - - - SW 19 24 10 13 1014.0 1013.9 -
18/09:17pm 25.3 - - - - SW 20 - 11 - - 1013.9 -
18/09:00pm 25.2 - - - - SW 19 24 10 13 1014.2 1014.1 -
18/08:30pm 25.2 - - - - SW 19 22 10 12 1014.1 1014.0 -
18/08:17pm 25.3 - - - - SW 19 - 10 - - 1014.0 -
18/08:00pm 25.6 - - - - SW 19 22 10 12 1014.0 1013.9 -
18/07:30pm 25.6 - - - - SW 17 19 9 10 1013.9 1013.8 -
18/07:17pm 25.8 - - - - WSW 17 - 9 - - 1013.7 -
18/07:00pm 25.8 - - - - WSW 15 17 8 9 1013.7 1013.6 -
18/06:30pm 26.0 - - - - W 13 15 7 8 1013.5 1013.4 -
18/06:17pm 26.0 - - - - W 13 - 7 - - 1013.2 -
18/06:00pm 25.8 - - - - WSW 13 15 7 8 1013.2 1013.1 -
18/05:30pm 26.1 - - - - WSW 11 13 6 7 1013.1 1013.0 -
18/05:17pm 26.0 - - - - W 9 - 5 - - 1013.0 -
18/05:00pm 26.4 - - - - W 11 13 6 7 1013.2 1013.1 -
18/04:30pm 27.0 - - - - W 11 13 6 7 1013.2 1013.1 -
18/04:17pm 27.3 - - - - WNW 11 - 6 - - 1013.0 -
18/04:00pm 27.7 - - - - N 11 13 6 7 1013.1 1013.0 -
18/03:30pm 27.8 - - - - SSE 13 17 7 9 1013.1 1013.0 -
18/03:17pm 28.3 - - - - SSW 11 - 6 - - 1013.1 -
18/03:00pm 27.4 - - - - W 11 15 6 8 1013.2 1013.1 -
18/02:30pm 28.2 - - - - W 13 15 7 8 1013.5 1013.4 -
18/02:17pm 28.5 - - - - SE 9 - 5 - - 1013.5 -
18/02:00pm 28.4 - - - - ESE 11 15 6 8 1013.7 1013.6 -
18/01:30pm 27.4 - - - - ENE 13 17 7 9 1014.0 1013.9 -
18/01:17pm 27.7 - - - - E 15 - 8 - - 1014.1 -
18/01:00pm 27.8 - - - - ESE 15 20 8 11 1014.4 1014.3 -
18/12:30pm 27.8 - - - - E 15 20 8 11 1014.8 1014.7 -
18/12:17pm 27.4 - - - - E 15 - 8 - - 1014.8 -
18/12:00pm 27.1 - - - - E 17 24 9 13 1015.4 1015.3 -
18/11:30am 27.1 - - - - E 17 20 9 11 1015.9 1015.8 -
18/11:17am 27.6 - - - - ESE 17 - 9 - - 1016.0 -
18/11:00am 27.4 - - - - SE 19 22 10 12 1016.5 1016.4 -
18/10:30am 27.5 - - - - SE 20 24 11 13 1016.8 1016.7 -
18/10:17am 27.2 - - - - SE 19 - 10 - - 1016.8 -
18/10:00am 27.8 - - - - SE 19 22 10 12 1016.9 1016.8 -
18/09:30am 26.8 - - - - SE 17 22 9 12 1017.2 1017.1 -
18/09:17am 26.7 - - - - SE 19 - 10 - - 1017.1 -
18/09:00am 26.3 - - - - SE 17 20 9 11 1017.1 1017.0 -
18/08:30am 25.9 - - - - SE 15 17 8 9 1017.0 1016.9 -
18/08:17am 25.6 - - - - SE 15 - 8 - - 1016.9 -
18/08:00am 25.4 - - - - SE 13 17 7 9 1016.9 1016.8 -
18/07:30am 24.6 - - - - SSE 11 13 6 7 1016.6 1016.5 -
18/07:17am 23.9 - - - - SSE 11 - 6 - - 1016.4 -
18/07:00am 23.5 - - - - SSE 13 13 7 7 1016.3 1016.2 -
18/06:30am 23.6 - - - - SSE 13 15 7 8 1016.1 1016.0 -
18/06:17am 24.1 - - - - SSE 13 - 7 - - 1015.8 -
18/06:00am 23.9 - - - - SSE 13 15 7 8 1015.7 1015.6 -
18/05:30am 23.3 - - - - SE 13 15 7 8 1015.5 1015.4 -
18/05:17am 23.0 - - - - ESE 13 - 7 - - 1015.3 -
18/05:00am 23.6 - - - - ESE 13 15 7 8 1015.1 1015.0 -
18/04:30am 23.3 - - - - ESE 11 13 6 7 1014.8 1014.7 -
18/04:17am 23.1 - - - - ESE 13 - 7 - - 1014.6 -
18/04:00am 23.5 - - - - SE 13 13 7 7 1014.6 1014.5 -
18/03:30am 23.4 - - - - SE 15 15 8 8 1014.6 1014.5 -
18/03:17am 23.3 - - - - SSE 15 - 8 - - 1014.5 -
18/03:00am 23.3 - - - - SSE 15 17 8 9 1014.7 1014.6 -
18/02:30am 24.0 - - - - SSE 17 19 9 10 1014.8 1014.7 -
18/02:17am 23.8 - - - - SSE 17 - 9 - - 1014.7 -
18/02:00am 24.5 - - - - SSE 15 17 8 9 1014.9 1014.8 -
18/01:30am 24.6 - - - - S 17 19 9 10 1015.1 1015.0 -
18/01:17am 24.5 - - - - S 17 - 9 - - 1015.1 -
18/01:00am 24.9 - - - - S 15 17 8 9 1015.4 1015.3 -
18/12:30am 23.2 - - - - S 15 17 8 9 1015.6 1015.5 -
18/12:17am 24.6 - - - - S 15 - 8 - - 1015.6 -
18/12:00am 24.6 - - - - S 13 15 7 8 1015.7 1015.6 -
 
Date/Time
WST
Temp
°C
App
Temp
°C
Dew
Point
°C
Rel
Hum
%
Delta-T
°C
Wind Press
QNH
hPa
Press
MSL
hPa
Rain since
9am
mm
Dir  Spd
km/h
Gust
km/h
Spd
kts
Gust
kts
17/11:30pm 25.1 - - - - SSW 11 13 6 7 1015.7 1015.6 -
17/11:17pm 25.3 - - - - S 15 - 8 - - 1015.7 -
17/11:00pm 24.9 - - - - S 13 15 7 8 1015.7 1015.6 -
17/10:30pm 25.0 - - - - S 13 13 7 7 1015.8 1015.7 -
17/10:17pm 25.1 - - - - S 13 - 7 - - 1015.7 -
17/10:00pm 25.2 - - - - S 13 13 7 7 1015.9 1015.8 -
17/09:30pm 24.9 - - - - S 15 17 8 9 1016.0 1015.9 -
17/09:17pm 25.2 - - - - S 17 - 9 - - 1015.9 -
17/09:00pm 25.0 - - - - S 17 19 9 10 1016.0 1015.9 -
17/08:30pm 25.1 - - - - S 17 19 9 10 1016.0 1015.9 -
17/08:17pm 24.9 - - - - S 17 - 9 - - 1015.8 -
17/08:00pm 25.7 - - - - S 17 17 9 9 1015.8 1015.7 -
17/07:30pm 24.5 - - - - S 17 17 9 9 1015.7 1015.6 -
17/07:17pm 24.8 - - - - S 17 - 9 - - 1015.5 -
17/07:00pm 24.0 - - - - S 15 17 8 9 1015.3 1015.2 -
17/06:30pm 24.5 - - - - S 17 19 9 10 1015.0 1014.9 -
17/06:17pm 24.3 - - - - S 15 - 8 - - 1014.7 -
17/06:00pm 24.4 - - - - SSE 11 13 6 7 1014.7 1014.6 -
17/05:30pm 24.9 - - - - SSW 19 22 10 12 1014.7 1014.6 -
17/05:17pm 25.2 - - - - S 17 - 9 - - 1014.5 -
17/05:00pm 25.4 - - - - S 19 22 10 12 1014.6 1014.5 -
17/04:30pm 25.7 - - - - SSW 19 22 10 12 1014.5 1014.4 -
17/04:17pm 25.9 - - - - SSW 19 - 10 - - 1014.3 -
17/04:00pm 25.9 - - - - S 19 24 10 13 1014.4 1014.3 -
17/03:30pm 26.1 - - - - SSW 19 24 10 13 1014.3 1014.2 -
17/03:17pm 25.8 - - - - SSW 20 - 11 - - 1014.2 -
17/03:00pm 26.5 - - - - SSW 20 24 11 13 1014.4 1014.3 -
17/02:30pm 25.7 - - - - SSW 19 24 10 13 1014.6 1014.5 -
17/02:17pm 26.0 - - - - S 19 - 10 - - 1014.5 -
17/02:00pm 25.9 - - - - S 20 26 11 14 1014.7 1014.6 -
17/01:30pm 26.6 - - - - S 20 30 11 16 1015.0 1014.9 -
17/01:17pm 25.8 - - - - S 22 - 12 - - 1015.1 -
17/01:00pm 26.7 - - - - S 20 28 11 15 1015.4 1015.3 -
17/12:30pm 26.3 - - - - SSE 17 22 9 12 1015.8 1015.7 -
17/12:17pm 26.8 - - - - SSE 17 - 9 - - 1016.0 -
17/12:00pm 26.2 - - - - SE 17 22 9 12 1016.3 1016.2 -
17/11:30am 26.0 - - - - ESE 15 20 8 11 1016.7 1016.6 -
17/11:17am 27.3 - - - - ESE 15 - 8 - - 1016.8 -
17/11:00am 25.8 - - - - SE 15 22 8 12 1017.1 1017.0 -
17/10:30am 26.1 - - - - SSE 17 20 9 11 1017.6 1017.5 -
17/10:17am 26.2 - - - - SSE 17 - 9 - - 1017.7 -
17/10:00am 26.3 - - - - SSE 15 24 8 13 1017.9 1017.8 -
17/09:30am 26.6 - - - - ESE 15 19 8 10 1018.0 1017.9 -
17/09:17am 26.3 - - - - SE 15 - 8 - - 1017.9 -
17/09:00am 26.0 - - - - SSE 17 20 9 11 1017.9 1017.8 -
17/08:30am 26.1 - - - - SE 17 22 9 12 1017.6 1017.5 -
17/08:17am 26.2 - - - - ESE 13 - 7 - - 1017.3 -
17/08:00am 26.2 - - - - E 9 11 5 6 1017.4 1017.3 -
17/07:30am 25.7 - - - - NE 7 9 4 5 1017.3 1017.2 -
17/07:17am 25.3 - - - - ENE 9 - 5 - - 1017.0 -
17/07:00am 25.3 - - - - CALM 0 0 0 0 1016.9 1016.8 -
17/06:30am 24.9 - - - - CALM 0 0 0 0 1016.6 1016.5 -
17/06:17am 25.2 - - - - CALM 0 - 0 - - 1016.3 -
17/06:00am 25.0 - - - - CALM 0 0 0 0 1016.2 1016.1 -
17/05:30am 24.9 - - - - CALM 0 0 0 0 1015.9 1015.8 -
17/05:17am 25.3 - - - - CALM 0 - 0 - - 1015.7 -
17/05:00am 25.1 - - - - CALM 0 0 0 0 1015.6 1015.5 -
17/04:30am 25.6 - - - - CALM 0 0 0 0 1015.2 1015.1 -
17/04:17am 25.5 - - - - CALM 0 - 0 - - 1015.0 -
17/04:00am 25.3 - - - - CALM 0 0 0 0 1015.0 1014.9 -
17/03:30am 25.9 - - - - CALM 0 0 0 0 1014.8 1014.7 -
17/03:17am 25.8 - - - - CALM 0 - 0 - - 1014.7 -
17/03:00am 26.0 - - - - CALM 0 0 0 0 1014.9 1014.8 -
17/02:30am 26.1 - - - - N 2 7 1 4 1015.0 1014.9 -
17/02:17am 25.8 - - - - N 7 - 4 - - 1014.9 -
17/02:00am 25.9 - - - - N 7 9 4 5 1015.1 1015.0 -
17/01:30am 26.2 - - - - N 9 11 5 6 1015.3 1015.2 -
17/01:17am 26.2 - - - - N 9 - 5 - - 1015.2 -
17/01:00am 26.1 - - - - N 9 13 5 7 1015.3 1015.2 -
17/12:30am 26.1 - - - - N 11 13 6 7 1015.4 1015.3 -
17/12:17am 26.2 - - - - N 11 - 6 - - 1015.3 -
17/12:00am 26.2 - - - - N 11 13 6 7 1015.3 1015.2 -
 
Date/Time
WST
Temp
°C
App
Temp
°C
Dew
Point
°C
Rel
Hum
%
Delta-T
°C
Wind Press
QNH
hPa
Press
MSL
hPa
Rain since
9am
mm
Dir  Spd
km/h
Gust
km/h
Spd
kts
Gust
kts
16/11:30pm 25.7 - - - - NNW 11 11 6 6 1015.4 1015.3 -
16/11:17pm 25.7 - - - - N 9 - 5 - - 1015.2 -
16/11:00pm 25.8 - - - - NNW 9 9 5 5 1015.4 1015.3 -
16/10:30pm 25.9 - - - - NNW 11 13 6 7 1015.4 1015.3 -
16/10:17pm 25.9 - - - - NNW 11 - 6 - - 1015.2 -
16/10:00pm 25.9 - - - - NNW 11 11 6 6 1015.3 1015.2 -
16/09:30pm 26.1 - - - - NNW 11 11 6 6 1015.1 1015.0 -
16/09:17pm 26.0 - - - - NNW 11 - 6 - - 1015.0 -
16/09:00pm 26.2 - - - - NNW 11 11 6 6 1015.1 1015.0 -
16/08:30pm 26.2 - - - - NNW 9 9 5 5 1014.9 1014.8 -
16/08:17pm 26.2 - - - - N 9 - 5 - - 1014.7 -
16/08:00pm 26.2 - - - - N 7 9 4 5 1014.7 1014.6 -
16/07:30pm 26.3 - - - - N 7 9 4 5 1014.5 1014.4 -
16/07:17pm 26.4 - - - - N 9 - 5 - - 1014.3 -
16/07:00pm 26.6 - - - - N 11 11 6 6 1014.3 1014.2 -
16/06:30pm 25.9 - - - - N 9 9 5 5 1014.0 1013.9 -
16/06:17pm 26.7 - - - - N 7 - 4 - - 1013.6 -
16/06:00pm 26.4 - - - - N 7 9 4 5 1013.6 1013.5 -
16/05:30pm 26.7 - - - - N 7 9 4 5 1013.4 1013.3 -
16/05:17pm 26.8 - - - - N 9 - 5 - - 1013.1 -
16/05:00pm 27.0 - - - - N 9 11 5 6 1013.1 1013.0 -
16/04:30pm 27.2 - - - - N 11 15 6 8 1013.0 1012.9 -
16/04:17pm 27.2 - - - - N 9 - 5 - - 1012.9 -
16/04:00pm 27.4 - - - - NNE 9 13 5 7 1013.0 1012.9 -
16/03:30pm 27.3 - - - - NE 15 17 8 9 1012.8 1012.7 -
16/03:17pm 27.8 - - - - NE 13 - 7 - - 1012.7 -
16/03:00pm 27.7 - - - - NE 13 17 7 9 1012.8 1012.7 -
16/02:30pm 27.7 - - - - NNE 11 13 6 7 1013.0 1012.9 -
16/02:17pm 27.6 - - - - NNE 11 - 6 - - 1012.8 -
16/02:00pm 28.0 - - - - NNE 11 15 6 8 1013.1 1013.0 -
16/01:30pm 27.5 - - - - NNE 11 15 6 8 1013.5 1013.4 -
16/01:17pm 28.2 - - - - NNE 13 - 7 - - 1013.5 -
16/01:00pm 27.4 - - - - NE 13 17 7 9 1013.9 1013.8 -
16/12:30pm 27.4 - - - - NE 15 17 8 9 1014.2 1014.1 -
16/12:17pm 27.5 - - - - NE 15 - 8 - - 1014.3 -
16/12:00pm 27.7 - - - - NE 15 20 8 11 1014.7 1014.6 -
16/11:30am 27.7 - - - - NE 17 20 9 11 1015.0 1014.9 -
16/11:17am 27.3 - - - - NE 19 - 10 - - 1015.1 -
16/11:00am 27.0 - - - - NE 17 22 9 12 1015.4 1015.3 -
16/10:30am 27.3 - - - - NE 19 22 10 12 1015.6 1015.5 -
16/10:17am 27.1 - - - - NNE 19 - 10 - - 1015.5 -
16/10:00am 26.9 - - - - NE 20 24 11 13 1015.8 1015.7 -
16/09:30am 27.5 - - - - NNE 19 24 10 13 1016.0 1015.9 -
16/09:17am 27.1 - - - - NNE 19 - 10 - - 1015.9 -
16/09:00am 27.1 - - - - NNE 19 22 10 12 1015.9 1015.8 -
16/08:30am 26.6 - - - - N 19 22 10 12 1015.6 1015.5 -
16/08:17am 26.6 - - - - N 19 - 10 - - 1015.3 -
16/08:00am 26.6 - - - - N 19 20 10 11 1015.2 1015.1 -
16/07:30am 26.3 - - - - N 17 20 9 11 1014.7 1014.6 -
16/07:17am 26.3 - - - - N 19 - 10 - - 1014.6 -
16/07:00am 25.9 - - - - N 19 20 10 11 1014.6 1014.5 -

Other formats

Comma delimited format used in spreadsheet applications
http://www.bom.gov.au/fwo/IDW60801/IDW60801.94210.axf

JavaScript Object Notation format (JSON) in row-major order
http://www.bom.gov.au/fwo/IDW60801/IDW60801.94210.json

Data quality

Most of these data are generated automatically and are frequently updated. Quality checks on data are not normally performed. It is possible for incorrect values to appear. Refer to information at About Latest Weather Observations and please check the disclaimer before using these data.